createdAt,value
2022-08-30T00:01:05.357Z,18.67
2022-08-30T00:06:09.698Z,18.55
2022-08-30T00:11:14.484Z,18.51
2022-08-30T00:16:17.596Z,18.33
2022-08-30T00:21:19.722Z,18.10
2022-08-30T00:26:22.628Z,17.90
2022-08-30T00:31:24.550Z,17.70
2022-08-30T00:36:26.646Z,17.59
2022-08-30T00:41:37.445Z,17.38
2022-08-30T00:46:39.429Z,17.17
2022-08-30T00:52:01.928Z,17.29
2022-08-30T00:57:05.117Z,17.26
2022-08-30T01:02:07.547Z,17.18
2022-08-30T01:07:09.469Z,17.09
2022-08-30T01:12:11.843Z,16.99
2022-08-30T01:17:14.655Z,16.97
2022-08-30T01:22:45.354Z,16.99
2022-08-30T01:27:56.004Z,16.99
2022-08-30T01:33:01.275Z,17.15
2022-08-30T01:38:03.217Z,17.28
2022-08-30T01:43:05.741Z,17.16
2022-08-30T01:48:08.498Z,17.08
2022-08-30T01:53:13.053Z,17.04
2022-08-30T01:58:15.318Z,16.90
2022-08-30T02:03:17.518Z,16.80
2022-08-30T02:08:19.478Z,16.75
2022-08-30T02:13:21.388Z,16.73
2022-08-30T02:18:25.252Z,16.82
2022-08-30T02:23:27.969Z,16.82
2022-08-30T02:28:30.140Z,16.84
2022-08-30T02:33:32.199Z,17.05
2022-08-30T02:38:34.504Z,17.24
2022-08-30T02:43:36.389Z,17.13
2022-08-30T02:48:38.376Z,17.05
2022-08-30T02:53:42.493Z,16.94
2022-08-30T02:58:45.337Z,16.91
2022-08-30T03:03:47.327Z,16.88
2022-08-30T03:08:49.295Z,16.79
2022-08-30T03:13:51.359Z,16.70
2022-08-30T03:18:53.308Z,16.62
2022-08-30T03:23:55.148Z,16.63
2022-08-30T03:28:57.003Z,16.70
2022-08-30T03:33:58.942Z,16.84
2022-08-30T03:39:00.822Z,16.84
2022-08-30T03:44:04.355Z,16.87
2022-08-30T03:49:07.979Z,16.87
2022-08-30T03:54:10.134Z,16.92
2022-08-30T03:59:12.099Z,16.90
2022-08-30T04:04:18.657Z,16.93
2022-08-30T04:09:23.542Z,16.95
2022-08-30T04:14:25.418Z,17.04
2022-08-30T04:19:27.302Z,17.11
2022-08-30T04:24:29.242Z,17.15
2022-08-30T04:29:31.482Z,17.20
2022-08-30T04:34:33.386Z,17.11
2022-08-30T04:39:35.329Z,17.04
2022-08-30T04:44:37.363Z,17.07
2022-08-30T04:49:39.488Z,17.14
2022-08-30T04:54:41.419Z,17.22
2022-08-30T04:59:43.279Z,17.30
2022-08-30T05:05:03.985Z,17.28
2022-08-30T05:10:10.961Z,17.44
2022-08-30T05:15:13.678Z,17.60
2022-08-30T05:20:16.240Z,17.76
2022-08-30T05:25:20.774Z,17.89
2022-08-30T05:30:24.100Z,18.06
2022-08-30T05:35:26.091Z,18.19
2022-08-30T05:40:29.182Z,18.34
2022-08-30T05:45:31.285Z,18.48
2022-08-30T05:50:34.975Z,18.69
2022-08-30T05:55:41.522Z,18.91
2022-08-30T06:00:43.400Z,19.14
2022-08-30T06:10:55.244Z,19.67
2022-08-30T06:15:57.430Z,19.97
2022-08-30T06:20:59.387Z,20.28
2022-08-30T06:26:07.762Z,20.61
2022-08-30T06:31:12.461Z,20.86
2022-08-30T06:36:17.621Z,21.09
2022-08-30T06:41:22.502Z,21.43
2022-08-30T06:46:31.047Z,21.69
2022-08-30T06:51:37.111Z,21.85
2022-08-30T06:56:40.210Z,22.07
2022-08-30T07:01:44.381Z,22.29
2022-08-30T07:06:46.593Z,22.55
2022-08-30T07:11:48.664Z,22.85
2022-08-30T07:16:51.334Z,23.04
2022-08-30T07:21:54.135Z,23.20
2022-08-30T07:26:56.012Z,23.37
2022-08-30T07:31:57.906Z,23.60
2022-08-30T07:36:59.925Z,23.70
2022-08-30T07:42:02.259Z,23.98
2022-08-30T07:47:05.628Z,24.28
2022-08-30T07:52:07.661Z,24.56
2022-08-30T07:57:09.559Z,24.71
2022-08-30T08:02:11.455Z,24.76
2022-08-30T08:07:13.365Z,24.91
2022-08-30T08:12:15.350Z,24.95
2022-08-30T08:17:17.293Z,25.05
2022-08-30T08:22:21.553Z,25.20
2022-08-30T08:27:24.856Z,25.31
2022-08-30T08:32:26.763Z,25.41
2022-08-30T08:37:28.654Z,25.57
2022-08-30T08:42:54.778Z,25.74
2022-08-30T08:48:04.060Z,25.84
2022-08-30T08:53:46.651Z,26.14
2022-08-30T08:58:53.340Z,26.33
2022-08-30T09:03:57.399Z,26.50
2022-08-30T09:08:59.556Z,26.59
2022-08-30T09:14:01.459Z,26.71
2022-08-30T09:19:03.869Z,26.76
2022-08-30T09:24:08.759Z,26.78
2022-08-30T09:29:18.429Z,26.82
2022-08-30T09:34:23.959Z,26.89
2022-08-30T09:39:34.817Z,27.03
2022-08-30T09:44:38.227Z,27.14
2022-08-30T09:49:45.650Z,27.17
2022-08-30T09:55:21.352Z,27.31
2022-08-30T10:00:29.025Z,27.37
2022-08-30T10:05:33.565Z,27.39
2022-08-30T10:10:46.798Z,27.45
2022-08-30T10:15:58.693Z,27.59
2022-08-30T10:21:00.535Z,27.65
2022-08-30T10:26:14.653Z,27.75
2022-08-30T10:31:29.611Z,27.89
2022-08-30T10:36:33.669Z,28.11
2022-08-30T10:41:44.689Z,28.37
2022-08-30T10:47:22.953Z,28.48
2022-08-30T10:52:44.381Z,27.97
2022-08-30T10:57:48.641Z,27.51
2022-08-30T11:03:05.680Z,27.30
2022-08-30T11:08:22.184Z,27.13
2022-08-30T11:13:30.002Z,27.20
2022-08-30T11:18:50.926Z,27.44
2022-08-30T11:24:21.115Z,27.60
2022-08-30T11:29:43.823Z,27.91
2022-08-30T11:34:46.555Z,28.25
2022-08-30T11:39:48.997Z,28.41
2022-08-30T11:44:50.943Z,28.41
2022-08-30T11:50:09.933Z,28.61
2022-08-30T11:55:34.411Z,28.86
2022-08-30T12:00:44.904Z,28.98
2022-08-30T12:06:07.271Z,28.76
2022-08-30T12:11:12.405Z,28.74
2022-08-30T12:16:22.093Z,28.78
2022-08-30T12:21:31.177Z,28.73
2022-08-30T12:26:44.926Z,28.61
2022-08-30T12:31:52.798Z,28.74
2022-08-30T12:37:05.564Z,28.99
2022-08-30T12:42:20.447Z,28.82
2022-08-30T12:47:28.543Z,28.40
2022-08-30T12:52:40.839Z,28.22
2022-08-30T12:58:10.128Z,28.12
2022-08-30T13:03:54.182Z,27.89
2022-08-30T13:08:56.137Z,27.83
2022-08-30T13:14:20.983Z,27.98
2022-08-30T13:19:36.054Z,28.03
2022-08-30T13:24:37.909Z,27.89
2022-08-30T13:29:40.602Z,27.70
2022-08-30T13:34:45.351Z,27.66
2022-08-30T13:39:47.292Z,27.73
2022-08-30T13:44:49.993Z,27.51
2022-08-30T13:49:51.880Z,27.28
2022-08-30T13:54:55.647Z,27.24
2022-08-30T13:59:57.742Z,27.27
2022-08-30T14:05:02.853Z,27.35
2022-08-30T14:15:28.738Z,27.32
2022-08-30T14:20:31.166Z,27.32
2022-08-30T14:25:33.391Z,27.24
2022-08-30T14:30:35.430Z,27.28
2022-08-30T14:35:37.378Z,27.31
2022-08-30T14:40:41.482Z,27.33
2022-08-30T14:45:43.775Z,27.33
2022-08-30T14:50:45.778Z,27.24
2022-08-30T14:55:47.659Z,27.06
2022-08-30T15:00:52.626Z,26.94
2022-08-30T15:05:54.543Z,26.87
2022-08-30T15:10:56.527Z,26.87
2022-08-30T15:15:58.473Z,26.85
2022-08-30T15:21:00.346Z,26.82
2022-08-30T15:26:02.721Z,26.71
2022-08-30T15:31:08.701Z,26.67
2022-08-30T15:36:12.648Z,26.71
2022-08-30T15:41:15.675Z,26.74
2022-08-30T15:46:29.937Z,26.70
2022-08-30T15:51:41.153Z,26.67
2022-08-30T15:56:44.908Z,26.55
2022-08-30T16:01:47.662Z,26.40
2022-08-30T16:06:50.097Z,26.32
2022-08-30T16:11:54.442Z,26.19
2022-08-30T16:16:57.118Z,26.08
2022-08-30T16:21:59.547Z,26.01
2022-08-30T16:27:01.561Z,25.94
2022-08-30T16:32:03.794Z,25.90
2022-08-30T16:37:05.672Z,25.86
2022-08-30T16:42:08.012Z,25.75
2022-08-30T16:47:13.332Z,25.67
2022-08-30T16:52:16.701Z,25.65
2022-08-30T16:57:20.154Z,25.58
2022-08-30T17:02:22.223Z,25.55
2022-08-30T17:07:24.274Z,25.47
2022-08-30T17:12:26.360Z,25.36
2022-08-30T17:17:28.277Z,25.24
2022-08-30T17:22:31.648Z,25.13
2022-08-30T17:27:33.703Z,25.01
2022-08-30T17:32:35.960Z,24.94
2022-08-30T17:37:38.140Z,24.83
2022-08-30T17:42:40.883Z,24.74
2022-08-30T17:47:43.746Z,24.74
2022-08-30T17:52:45.779Z,24.71
2022-08-30T17:57:47.838Z,24.68
2022-08-30T18:02:53.108Z,24.62
2022-08-30T18:07:55.470Z,24.56
2022-08-30T18:12:58.735Z,24.43
2022-08-30T18:18:00.745Z,24.36
2022-08-30T18:23:02.807Z,24.34
2022-08-30T18:28:07.047Z,24.30
2022-08-30T18:33:08.905Z,24.28
2022-08-30T18:38:11.047Z,24.25
2022-08-30T18:43:13.273Z,24.23
2022-08-30T18:48:16.034Z,24.19
2022-08-30T18:53:28.640Z,24.14
2022-08-30T18:58:31.210Z,24.09
2022-08-30T19:03:33.979Z,24.03
2022-08-30T19:08:36.514Z,23.97
2022-08-30T19:13:39.270Z,23.89
2022-08-30T19:18:41.585Z,23.80
2022-08-30T19:23:43.648Z,23.71
2022-08-30T19:28:45.506Z,23.63
2022-08-30T19:33:47.686Z,23.54
2022-08-30T19:38:49.585Z,23.41
2022-08-30T19:43:51.592Z,23.31
2022-08-30T19:48:53.462Z,23.25
2022-08-30T19:53:56.327Z,23.15
2022-08-30T19:59:00.653Z,23.04
2022-08-30T20:04:02.846Z,22.98
2022-08-30T20:09:05.539Z,22.93
2022-08-30T20:14:13.546Z,22.89
2022-08-30T20:19:18.561Z,22.85
2022-08-30T20:24:25.095Z,22.84
2022-08-30T20:29:28.558Z,22.80
2022-08-30T20:34:30.581Z,22.76
2022-08-30T20:39:32.459Z,22.75
2022-08-30T20:44:34.818Z,22.70
2022-08-30T20:49:37.224Z,22.60
2022-08-30T20:54:39.480Z,22.53
2022-08-30T20:59:41.337Z,22.44
2022-08-30T21:04:43.213Z,22.40
2022-08-30T21:09:45.787Z,22.34
2022-08-30T21:14:47.704Z,22.22
2022-08-30T21:19:49.666Z,22.12
2022-08-30T21:24:54.669Z,21.96
2022-08-30T21:29:57.463Z,21.83
2022-08-30T21:35:18.006Z,21.64
2022-08-30T21:40:20.231Z,21.58
2022-08-30T21:45:22.286Z,21.48
2022-08-30T21:50:24.152Z,21.43
2022-08-30T21:55:26.028Z,21.36
2022-08-30T22:00:27.929Z,21.30
2022-08-30T22:05:29.762Z,21.22
2022-08-30T22:10:33.380Z,21.16
2022-08-30T22:15:35.409Z,21.11
2022-08-30T22:20:39.880Z,21.05
2022-08-30T22:25:43.255Z,20.99
2022-08-30T22:30:45.570Z,20.91
2022-08-30T22:35:47.444Z,20.82
2022-08-30T22:40:54.164Z,20.70
2022-08-30T22:45:57.970Z,20.61
2022-08-30T22:50:59.845Z,20.63
2022-08-30T22:56:08.756Z,20.74
2022-08-30T23:01:22.821Z,20.83
2022-08-30T23:06:25.329Z,20.84
2022-08-30T23:11:27.531Z,20.81
2022-08-30T23:16:32.632Z,20.69
2022-08-30T23:21:34.717Z,20.57
2022-08-30T23:26:55.502Z,20.42
2022-08-30T23:32:16.355Z,20.21
2022-08-30T23:37:36.834Z,20.13
2022-08-30T23:42:57.015Z,19.98
2022-08-30T23:48:17.366Z,19.89
2022-08-30T23:53:37.779Z,19.79
2022-08-30T23:59:01.792Z,19.85
